sensor_id;sensor_type;location;lat;lon;timestamp;pressure;altitude;pressure_sealevel;temperature;humidity
72428;BME280;60419;48.880;18.036;2023-07-29T00:00:09;98592.84;;;21.00;68.25
72428;BME280;60419;48.880;18.036;2023-07-29T00:02:55;98594.44;;;21.09;67.71
72428;BME280;60419;48.880;18.036;2023-07-29T00:05:41;98594.31;;;20.83;68.91
72428;BME280;60419;48.880;18.036;2023-07-29T00:08:26;98604.59;;;21.01;67.97
72428;BME280;60419;48.880;18.036;2023-07-29T00:11:12;98607.38;;;21.12;67.83
72428;BME280;60419;48.880;18.036;2023-07-29T00:13:57;98596.47;;;21.19;67.27
72428;BME280;60419;48.880;18.036;2023-07-29T00:16:42;98594.25;;;20.69;68.67
72428;BME280;60419;48.880;18.036;2023-07-29T00:19:28;98582.19;;;19.37;73.69
72428;BME280;60419;48.880;18.036;2023-07-29T00:22:13;98580.00;;;17.79;82.07
72428;BME280;60419;48.880;18.036;2023-07-29T00:24:59;98581.59;;;18.60;79.48
72428;BME280;60419;48.880;18.036;2023-07-29T00:27:44;98593.75;;;19.23;76.20
72428;BME280;60419;48.880;18.036;2023-07-29T00:30:29;98596.88;;;19.55;74.41
72428;BME280;60419;48.880;18.036;2023-07-29T00:33:15;98591.97;;;19.75;73.37
72428;BME280;60419;48.880;18.036;2023-07-29T00:36:00;98598.16;;;20.13;71.94
72428;BME280;60419;48.880;18.036;2023-07-29T00:38:47;98599.38;;;20.19;71.54
72428;BME280;60419;48.880;18.036;2023-07-29T00:41:32;98606.81;;;20.18;71.15
72428;BME280;60419;48.880;18.036;2023-07-29T00:44:17;98604.34;;;19.62;73.48
72428;BME280;60419;48.880;18.036;2023-07-29T00:47:05;98599.69;;;19.28;74.78
72428;BME280;60419;48.880;18.036;2023-07-29T00:49:51;98593.56;;;19.05;76.43
72428;BME280;60419;48.880;18.036;2023-07-29T00:52:36;98592.19;;;19.59;74.04
72428;BME280;60419;48.880;18.036;2023-07-29T00:55:22;98588.50;;;19.78;73.21
72428;BME280;60419;48.880;18.036;2023-07-29T00:58:07;98597.56;;;19.89;72.72
72428;BME280;60419;48.880;18.036;2023-07-29T01:00:54;98604.72;;;20.01;72.09
72428;BME280;60419;48.880;18.036;2023-07-29T01:03:40;98604.69;;;19.97;72.36
72428;BME280;60419;48.880;18.036;2023-07-29T01:06:53;98601.50;;;19.88;72.94
72428;BME280;60419;48.880;18.036;2023-07-29T01:09:52;98600.34;;;19.52;74.09
72428;BME280;60419;48.880;18.036;2023-07-29T01:18:38;98604.16;;;19.81;72.50
72428;BME280;60419;48.880;18.036;2023-07-29T01:21:25;98601.47;;;19.47;73.28
72428;BME280;60419;48.880;18.036;2023-07-29T01:24:12;98597.44;;;19.38;74.54
72428;BME280;60419;48.880;18.036;2023-07-29T01:26:57;98583.63;;;19.61;73.74
72428;BME280;60419;48.880;18.036;2023-07-29T01:29:43;98584.38;;;19.58;73.83
72428;BME280;60419;48.880;18.036;2023-07-29T01:32:55;98581.06;;;19.82;73.16
72428;BME280;60419;48.880;18.036;2023-07-29T01:35:54;98583.38;;;19.80;72.88
72428;BME280;60419;48.880;18.036;2023-07-29T01:38:41;98580.34;;;19.51;73.31
72428;BME280;60419;48.880;18.036;2023-07-29T01:41:27;98576.69;;;19.74;72.33
72428;BME280;60419;48.880;18.036;2023-07-29T01:44:13;98582.44;;;19.62;72.06
72428;BME280;60419;48.880;18.036;2023-07-29T01:46:59;98583.09;;;19.14;73.38
72428;BME280;60419;48.880;18.036;2023-07-29T01:49:44;98584.75;;;19.56;72.17
72428;BME280;60419;48.880;18.036;2023-07-29T01:52:30;98583.69;;;19.68;71.65
72428;BME280;60419;48.880;18.036;2023-07-29T01:55:15;98581.00;;;19.75;70.92
72428;BME280;60419;48.880;18.036;2023-07-29T01:58:01;98575.59;;;19.82;71.04
72428;BME280;60419;48.880;18.036;2023-07-29T02:00:46;98570.38;;;19.70;70.95
72428;BME280;60419;48.880;18.036;2023-07-29T02:03:31;98573.19;;;19.77;70.92
72428;BME280;60419;48.880;18.036;2023-07-29T02:06:17;98575.28;;;19.91;70.40
72428;BME280;60419;48.880;18.036;2023-07-29T02:09:02;98575.25;;;19.87;70.01
72428;BME280;60419;48.880;18.036;2023-07-29T02:11:49;98582.41;;;19.54;71.93
72428;BME280;60419;48.880;18.036;2023-07-29T02:14:34;98575.47;;;19.68;71.23
72428;BME280;60419;48.880;18.036;2023-07-29T02:17:20;98578.56;;;19.29;72.34
72428;BME280;60419;48.880;18.036;2023-07-29T02:20:06;98575.19;;;19.43;72.06
72428;BME280;60419;48.880;18.036;2023-07-29T02:22:52;98573.44;;;19.61;71.64
72428;BME280;60419;48.880;18.036;2023-07-29T02:25:37;98576.41;;;19.86;70.81
72428;BME280;60419;48.880;18.036;2023-07-29T02:28:23;98574.84;;;19.48;71.63
72428;BME280;60419;48.880;18.036;2023-07-29T02:33:55;98584.41;;;19.27;72.72
72428;BME280;60419;48.880;18.036;2023-07-29T02:36:41;98579.41;;;19.70;71.18
72428;BME280;60419;48.880;18.036;2023-07-29T02:39:27;98582.19;;;19.74;70.37
72428;BME280;60419;48.880;18.036;2023-07-29T02:42:12;98581.91;;;19.86;70.18
72428;BME280;60419;48.880;18.036;2023-07-29T02:44:57;98579.41;;;19.70;70.78
72428;BME280;60419;48.880;18.036;2023-07-29T02:47:44;98580.25;;;19.41;71.79
72428;BME280;60419;48.880;18.036;2023-07-29T02:50:29;98588.75;;;19.66;71.09
72428;BME280;60419;48.880;18.036;2023-07-29T02:53:14;98563.81;;;19.41;71.12
72428;BME280;60419;48.880;18.036;2023-07-29T02:56:00;98582.66;;;19.46;71.67
72428;BME280;60419;48.880;18.036;2023-07-29T02:58:45;98588.47;;;19.41;71.86
72428;BME280;60419;48.880;18.036;2023-07-29T03:01:31;98578.91;;;19.24;72.21
72428;BME280;60419;48.880;18.036;2023-07-29T03:04:16;98590.34;;;19.33;72.05
72428;BME280;60419;48.880;18.036;2023-07-29T03:07:02;98606.13;;;18.79;74.13
72428;BME280;60419;48.880;18.036;2023-07-29T03:09:47;98603.47;;;18.60;75.16
72428;BME280;60419;48.880;18.036;2023-07-29T03:12:32;98591.78;;;18.63;75.15
72428;BME280;60419;48.880;18.036;2023-07-29T03:15:18;98598.06;;;18.10;77.02
72428;BME280;60419;48.880;18.036;2023-07-29T03:18:03;98592.56;;;18.33;76.30
72428;BME280;60419;48.880;18.036;2023-07-29T03:20:49;98582.28;;;18.00;78.35
72428;BME280;60419;48.880;18.036;2023-07-29T03:23:35;98594.78;;;18.51;76.25
72428;BME280;60419;48.880;18.036;2023-07-29T03:26:20;98602.88;;;18.70;75.39
72428;BME280;60419;48.880;18.036;2023-07-29T03:29:06;98604.75;;;18.39;77.03
72428;BME280;60419;48.880;18.036;2023-07-29T03:31:51;98605.81;;;18.31;77.67
72428;BME280;60419;48.880;18.036;2023-07-29T03:34:36;98605.47;;;18.63;76.46
72428;BME280;60419;48.880;18.036;2023-07-29T03:37:22;98606.66;;;18.62;76.44
72428;BME280;60419;48.880;18.036;2023-07-29T03:40:07;98618.09;;;18.18;77.82
72428;BME280;60419;48.880;18.036;2023-07-29T03:42:54;98618.53;;;18.46;77.13
72428;BME280;60419;48.880;18.036;2023-07-29T03:45:40;98616.97;;;18.72;76.19
72428;BME280;60419;48.880;18.036;2023-07-29T03:48:25;98619.34;;;18.74;76.02
72428;BME280;60419;48.880;18.036;2023-07-29T03:51:11;98608.84;;;18.26;78.07
72428;BME280;60419;48.880;18.036;2023-07-29T03:53:56;98611.31;;;16.84;84.86
72428;BME280;60419;48.880;18.036;2023-07-29T03:56:42;98614.13;;;16.88;85.84
72428;BME280;60419;48.880;18.036;2023-07-29T03:59:27;98616.59;;;17.12;85.57
72428;BME280;60419;48.880;18.036;2023-07-29T04:02:12;98621.16;;;17.90;82.24
72428;BME280;60419;48.880;18.036;2023-07-29T04:04:58;98623.41;;;18.07;81.13
72428;BME280;60419;48.880;18.036;2023-07-29T04:07:43;98621.34;;;18.00;81.09
72428;BME280;60419;48.880;18.036;2023-07-29T04:10:29;98614.41;;;18.07;81.41
72428;BME280;60419;48.880;18.036;2023-07-29T04:13:16;98621.31;;;17.15;86.03
72428;BME280;60419;48.880;18.036;2023-07-29T04:16:02;98632.97;;;17.97;82.95
72428;BME280;60419;48.880;18.036;2023-07-29T04:18:47;98631.16;;;18.55;80.10
72428;BME280;60419;48.880;18.036;2023-07-29T04:21:33;98641.84;;;18.90;77.74
72428;BME280;60419;48.880;18.036;2023-07-29T04:24:18;98630.34;;;18.01;81.54
72428;BME280;60419;48.880;18.036;2023-07-29T04:27:05;98625.69;;;18.55;79.05
72428;BME280;60419;48.880;18.036;2023-07-29T04:29:50;98626.72;;;19.00;76.71
72428;BME280;60419;48.880;18.036;2023-07-29T04:32:36;98625.00;;;18.88;76.54
72428;BME280;60419;48.880;18.036;2023-07-29T04:35:21;98624.28;;;19.25;74.90
72428;BME280;60419;48.880;18.036;2023-07-29T04:38:07;98627.34;;;19.20;74.82
72428;BME280;60419;48.880;18.036;2023-07-29T04:40:52;98627.06;;;18.95;76.02
72428;BME280;60419;48.880;18.036;2023-07-29T04:43:37;98626.16;;;19.17;75.84
72428;BME280;60419;48.880;18.036;2023-07-29T04:46:23;98631.63;;;19.17;75.27
72428;BME280;60419;48.880;18.036;2023-07-29T04:49:08;98634.97;;;19.03;75.91
72428;BME280;60419;48.880;18.036;2023-07-29T04:51:54;98634.97;;;19.33;74.92
72428;BME280;60419;48.880;18.036;2023-07-29T04:54:39;98636.19;;;19.06;76.11
72428;BME280;60419;48.880;18.036;2023-07-29T04:57:24;98643.22;;;18.00;82.38
72428;BME280;60419;48.880;18.036;2023-07-29T05:00:10;98646.19;;;18.41;80.42
72428;BME280;60419;48.880;18.036;2023-07-29T05:02:56;98651.44;;;17.81;83.61
72428;BME280;60419;48.880;18.036;2023-07-29T05:05:41;98644.75;;;17.78;83.90
72428;BME280;60419;48.880;18.036;2023-07-29T05:08:27;98649.00;;;18.45;81.71
72428;BME280;60419;48.880;18.036;2023-07-29T05:11:12;98646.00;;;17.62;84.46
72428;BME280;60419;48.880;18.036;2023-07-29T05:13:57;98651.03;;;18.02;83.63
72428;BME280;60419;48.880;18.036;2023-07-29T05:16:43;98659.22;;;18.25;82.31
72428;BME280;60419;48.880;18.036;2023-07-29T05:19:29;98632.97;;;18.70;80.33
72428;BME280;60419;48.880;18.036;2023-07-29T05:22:14;98660.22;;;18.89;79.44
72428;BME280;60419;48.880;18.036;2023-07-29T05:25:00;98662.69;;;19.28;77.61
72428;BME280;60419;48.880;18.036;2023-07-29T05:27:45;98656.19;;;19.44;77.20
72428;BME280;60419;48.880;18.036;2023-07-29T05:30:32;98662.00;;;19.39;76.77
72428;BME280;60419;48.880;18.036;2023-07-29T05:33:19;98669.34;;;18.48;80.75
72428;BME280;60419;48.880;18.036;2023-07-29T05:36:04;98666.47;;;18.90;79.51
72428;BME280;60419;48.880;18.036;2023-07-29T05:38:51;98655.19;;;19.56;76.38
72428;BME280;60419;48.880;18.036;2023-07-29T05:41:37;98666.97;;;19.97;75.20
72428;BME280;60419;48.880;18.036;2023-07-29T05:44:22;98672.44;;;20.38;72.93
72428;BME280;60419;48.880;18.036;2023-07-29T05:47:07;98671.72;;;20.48;71.98
72428;BME280;60419;48.880;18.036;2023-07-29T05:49:53;98668.56;;;20.46;72.22
72428;BME280;60419;48.880;18.036;2023-07-29T05:52:38;98670.72;;;20.23;72.63
72428;BME280;60419;48.880;18.036;2023-07-29T05:55:24;98667.81;;;20.05;73.70
72428;BME280;60419;48.880;18.036;2023-07-29T05:58:09;98669.81;;;20.11;73.38
72428;BME280;60419;48.880;18.036;2023-07-29T06:00:54;98671.91;;;20.25;72.93
72428;BME280;60419;48.880;18.036;2023-07-29T06:03:40;98686.41;;;19.85;74.71
72428;BME280;60419;48.880;18.036;2023-07-29T06:06:25;98678.59;;;20.28;73.07
72428;BME280;60419;48.880;18.036;2023-07-29T06:09:11;98676.56;;;20.21;73.00
72428;BME280;60419;48.880;18.036;2023-07-29T06:11:56;98681.88;;;19.62;75.48
72428;BME280;60419;48.880;18.036;2023-07-29T06:14:41;98685.84;;;19.68;75.74
72428;BME280;60419;48.880;18.036;2023-07-29T06:17:27;98692.31;;;19.87;75.33
72428;BME280;60419;48.880;18.036;2023-07-29T06:20:12;98696.63;;;19.54;76.17
72428;BME280;60419;48.880;18.036;2023-07-29T06:22:57;98700.19;;;19.54;76.22
72428;BME280;60419;48.880;18.036;2023-07-29T06:25:43;98687.44;;;20.10;74.37
72428;BME280;60419;48.880;18.036;2023-07-29T06:28:28;98694.72;;;20.88;70.84
72428;BME280;60419;48.880;18.036;2023-07-29T06:31:14;98696.78;;;22.00;66.94
72428;BME280;60419;48.880;18.036;2023-07-29T06:33:59;98691.69;;;22.56;64.91
72428;BME280;60419;48.880;18.036;2023-07-29T06:36:45;98711.78;;;22.49;64.36
72428;BME280;60419;48.880;18.036;2023-07-29T06:39:30;98709.84;;;21.23;69.97
72428;BME280;60419;48.880;18.036;2023-07-29T06:42:16;98700.28;;;21.90;67.27
72428;BME280;60419;48.880;18.036;2023-07-29T06:45:01;98700.47;;;21.24;69.33
72428;BME280;60419;48.880;18.036;2023-07-29T06:47:46;98694.06;;;22.11;66.45
72428;BME280;60419;48.880;18.036;2023-07-29T06:50:32;98699.03;;;21.69;67.20
72428;BME280;60419;48.880;18.036;2023-07-29T06:53:17;98697.13;;;21.84;67.10
72428;BME280;60419;48.880;18.036;2023-07-29T06:56:03;98688.97;;;22.81;63.76
72428;BME280;60419;48.880;18.036;2023-07-29T06:58:48;98695.84;;;23.50;61.47
72428;BME280;60419;48.880;18.036;2023-07-29T07:01:34;98691.44;;;23.63;60.71
72428;BME280;60419;48.880;18.036;2023-07-29T07:04:19;98690.34;;;23.39;61.50
72428;BME280;60419;48.880;18.036;2023-07-29T07:07:05;98686.31;;;23.65;60.45
72428;BME280;60419;48.880;18.036;2023-07-29T07:09:50;98689.91;;;23.55;60.83
72428;BME280;60419;48.880;18.036;2023-07-29T07:12:36;98692.50;;;22.24;65.04
72428;BME280;60419;48.880;18.036;2023-07-29T07:15:21;98694.78;;;21.93;67.09
72428;BME280;60419;48.880;18.036;2023-07-29T07:18:06;98684.16;;;20.94;70.54
72428;BME280;60419;48.880;18.036;2023-07-29T07:20:53;98686.91;;;20.90;71.37
72428;BME280;60419;48.880;18.036;2023-07-29T07:23:39;98680.69;;;20.41;73.45
72428;BME280;60419;48.880;18.036;2023-07-29T07:26:24;98689.88;;;21.33;69.66
72428;BME280;60419;48.880;18.036;2023-07-29T07:29:10;98679.47;;;20.39;72.64
72428;BME280;60419;48.880;18.036;2023-07-29T07:31:56;98683.09;;;21.09;70.97
72428;BME280;60419;48.880;18.036;2023-07-29T07:34:41;98682.09;;;21.49;69.30
72428;BME280;60419;48.880;18.036;2023-07-29T07:37:26;98685.34;;;21.77;68.72
72428;BME280;60419;48.880;18.036;2023-07-29T07:40:12;98669.69;;;22.34;66.99
72428;BME280;60419;48.880;18.036;2023-07-29T07:42:57;98676.38;;;22.30;65.45
72428;BME280;60419;48.880;18.036;2023-07-29T07:45:42;98674.41;;;22.52;64.49
72428;BME280;60419;48.880;18.036;2023-07-29T07:48:28;98678.72;;;22.46;64.55
72428;BME280;60419;48.880;18.036;2023-07-29T07:51:13;98669.69;;;22.59;64.87
72428;BME280;60419;48.880;18.036;2023-07-29T07:53:59;98679.94;;;22.73;63.49
72428;BME280;60419;48.880;18.036;2023-07-29T07:56:44;98673.63;;;22.44;65.39
72428;BME280;60419;48.880;18.036;2023-07-29T07:59:30;98675.59;;;22.29;64.95
72428;BME280;60419;48.880;18.036;2023-07-29T08:02:15;98663.41;;;22.63;62.88
72428;BME280;60419;48.880;18.036;2023-07-29T08:05:00;98665.75;;;22.46;63.01
72428;BME280;60419;48.880;18.036;2023-07-29T08:07:46;98661.03;;;22.86;62.57
72428;BME280;60419;48.880;18.036;2023-07-29T08:10:31;98660.19;;;23.00;61.03
72428;BME280;60419;48.880;18.036;2023-07-29T08:13:17;98650.00;;;22.86;62.36
72428;BME280;60419;48.880;18.036;2023-07-29T08:16:03;98653.72;;;23.42;59.82
72428;BME280;60419;48.880;18.036;2023-07-29T08:18:48;98650.53;;;23.55;58.71
72428;BME280;60419;48.880;18.036;2023-07-29T08:21:34;98652.31;;;23.09;60.84
72428;BME280;60419;48.880;18.036;2023-07-29T08:24:19;98650.97;;;23.42;59.86
72428;BME280;60419;48.880;18.036;2023-07-29T08:27:05;98650.41;;;22.77;62.50
72428;BME280;60419;48.880;18.036;2023-07-29T08:29:50;98645.06;;;23.44;60.90
72428;BME280;60419;48.880;18.036;2023-07-29T08:32:36;98633.34;;;23.92;58.82
72428;BME280;60419;48.880;18.036;2023-07-29T08:35:21;98638.09;;;23.92;58.74
72428;BME280;60419;48.880;18.036;2023-07-29T08:38:07;98639.50;;;24.18;58.17
72428;BME280;60419;48.880;18.036;2023-07-29T08:43:56;98624.84;;;24.28;58.08
72428;BME280;60419;48.880;18.036;2023-07-29T08:46:44;98623.66;;;23.73;60.03
72428;BME280;60419;48.880;18.036;2023-07-29T08:49:30;98623.75;;;24.15;58.99
72428;BME280;60419;48.880;18.036;2023-07-29T08:52:18;98612.78;;;24.52;56.59
72428;BME280;60419;48.880;18.036;2023-07-29T08:55:04;98606.69;;;25.06;55.32
72428;BME280;60419;48.880;18.036;2023-07-29T08:57:50;98597.63;;;25.06;54.21
72428;BME280;60419;48.880;18.036;2023-07-29T09:00:36;98603.06;;;24.75;55.68
72428;BME280;60419;48.880;18.036;2023-07-29T09:03:22;98603.97;;;24.65;56.37
72428;BME280;60419;48.880;18.036;2023-07-29T09:06:08;98607.84;;;23.81;56.70
72428;BME280;60419;48.880;18.036;2023-07-29T09:08:54;98607.47;;;23.01;59.61
72428;BME280;60419;48.880;18.036;2023-07-29T09:11:41;98599.69;;;23.66;59.74
72428;BME280;60419;48.880;18.036;2023-07-29T09:14:28;98593.00;;;24.13;56.71
72428;BME280;60419;48.880;18.036;2023-07-29T09:17:14;98583.66;;;23.47;57.57
72428;BME280;60419;48.880;18.036;2023-07-29T09:19:59;98600.66;;;23.28;59.09
72428;BME280;60419;48.880;18.036;2023-07-29T09:22:44;98590.22;;;24.20;56.66
72428;BME280;60419;48.880;18.036;2023-07-29T09:25:30;98586.97;;;24.32;56.11
72428;BME280;60419;48.880;18.036;2023-07-29T09:28:16;98575.66;;;24.19;57.19
72428;BME280;60419;48.880;18.036;2023-07-29T09:31:02;98576.09;;;24.52;55.77
72428;BME280;60419;48.880;18.036;2023-07-29T09:33:48;98577.63;;;24.57;55.86
72428;BME280;60419;48.880;18.036;2023-07-29T09:36:34;98578.56;;;24.84;55.28
72428;BME280;60419;48.880;18.036;2023-07-29T09:39:22;98572.28;;;25.11;55.70
72428;BME280;60419;48.880;18.036;2023-07-29T09:42:11;98552.91;;;25.14;55.30
72428;BME280;60419;48.880;18.036;2023-07-29T09:44:57;98565.84;;;25.21;53.94
72428;BME280;60419;48.880;18.036;2023-07-29T09:47:46;98563.09;;;25.21;54.73
72428;BME280;60419;48.880;18.036;2023-07-29T09:50:31;98557.59;;;24.83;55.21
72428;BME280;60419;48.880;18.036;2023-07-29T09:53:17;98564.69;;;24.88;55.58
72428;BME280;60419;48.880;18.036;2023-07-29T09:56:02;98564.88;;;25.04;54.54
72428;BME280;60419;48.880;18.036;2023-07-29T09:58:48;98570.25;;;24.81;55.00
72428;BME280;60419;48.880;18.036;2023-07-29T10:01:34;98558.53;;;23.90;56.83
72428;BME280;60419;48.880;18.036;2023-07-29T10:04:21;98568.66;;;24.49;55.76
72428;BME280;60419;48.880;18.036;2023-07-29T10:07:07;98567.69;;;25.01;54.74
72428;BME280;60419;48.880;18.036;2023-07-29T10:09:53;98566.31;;;24.82;53.20
72428;BME280;60419;48.880;18.036;2023-07-29T10:12:39;98568.91;;;25.00;53.69
72428;BME280;60419;48.880;18.036;2023-07-29T10:15:29;98557.47;;;24.63;54.32
72428;BME280;60419;48.880;18.036;2023-07-29T10:18:15;98563.72;;;25.32;52.65
72428;BME280;60419;48.880;18.036;2023-07-29T10:21:02;98557.69;;;25.68;51.90
72428;BME280;60419;48.880;18.036;2023-07-29T10:23:49;98554.03;;;25.98;52.09
72428;BME280;60419;48.880;18.036;2023-07-29T10:26:39;98557.44;;;26.06;48.84
72428;BME280;60419;48.880;18.036;2023-07-29T10:29:30;98553.81;;;25.35;49.92
72428;BME280;60419;48.880;18.036;2023-07-29T10:32:16;98557.59;;;24.83;50.03
72428;BME280;60419;48.880;18.036;2023-07-29T10:35:02;98558.03;;;24.47;50.37
72428;BME280;60419;48.880;18.036;2023-07-29T10:37:47;98558.78;;;24.06;50.78
72428;BME280;60419;48.880;18.036;2023-07-29T10:40:50;98572.47;;;23.72;55.53
72428;BME280;60419;48.880;18.036;2023-07-29T10:43:37;98570.78;;;23.85;56.68
72428;BME280;60419;48.880;18.036;2023-07-29T10:46:25;98572.97;;;24.05;56.86
72428;BME280;60419;48.880;18.036;2023-07-29T10:49:10;98577.91;;;23.83;58.36
72428;BME280;60419;48.880;18.036;2023-07-29T10:51:56;98577.72;;;24.04;58.39
72428;BME280;60419;48.880;18.036;2023-07-29T10:54:47;98555.06;;;23.79;58.44
72428;BME280;60419;48.880;18.036;2023-07-29T10:57:38;98573.78;;;24.05;58.47
72428;BME280;60419;48.880;18.036;2023-07-29T11:00:30;98577.41;;;23.95;59.13
72428;BME280;60419;48.880;18.036;2023-07-29T11:03:16;98569.97;;;23.88;59.91
72428;BME280;60419;48.880;18.036;2023-07-29T11:06:04;98569.53;;;23.94;60.15
72428;BME280;60419;48.880;18.036;2023-07-29T11:08:50;98566.59;;;24.19;59.53
72428;BME280;60419;48.880;18.036;2023-07-29T11:11:38;98557.47;;;24.60;58.41
72428;BME280;60419;48.880;18.036;2023-07-29T11:14:24;98561.56;;;24.48;57.10
72428;BME280;60419;48.880;18.036;2023-07-29T11:17:09;98546.34;;;25.05;55.10
72428;BME280;60419;48.880;18.036;2023-07-29T11:19:57;98549.47;;;25.34;53.52
72428;BME280;60419;48.880;18.036;2023-07-29T11:22:45;98542.31;;;25.67;53.25
72428;BME280;60419;48.880;18.036;2023-07-29T11:25:31;98538.69;;;25.70;51.74
72428;BME280;60419;48.880;18.036;2023-07-29T11:28:18;98537.47;;;25.71;51.21
72428;BME280;60419;48.880;18.036;2023-07-29T11:31:03;98530.78;;;26.16;50.32
72428;BME280;60419;48.880;18.036;2023-07-29T11:33:49;98534.72;;;25.95;51.60
72428;BME280;60419;48.880;18.036;2023-07-29T11:36:34;98544.06;;;24.96;56.60
72428;BME280;60419;48.880;18.036;2023-07-29T11:39:20;98526.03;;;23.67;61.04
72428;BME280;60419;48.880;18.036;2023-07-29T11:42:05;98531.97;;;23.62;62.06
72428;BME280;60419;48.880;18.036;2023-07-29T11:44:50;98525.50;;;24.62;58.39
72428;BME280;60419;48.880;18.036;2023-07-29T11:47:36;98523.16;;;24.95;57.17
72428;BME280;60419;48.880;18.036;2023-07-29T11:50:22;98533.47;;;25.22;55.91
72428;BME280;60419;48.880;18.036;2023-07-29T11:53:07;98530.91;;;25.07;54.92
72428;BME280;60419;48.880;18.036;2023-07-29T11:55:53;98526.47;;;24.48;56.47
72428;BME280;60419;48.880;18.036;2023-07-29T11:58:38;98532.69;;;24.90;56.07
72428;BME280;60419;48.880;18.036;2023-07-29T12:01:24;98522.31;;;25.56;55.40
72428;BME280;60419;48.880;18.036;2023-07-29T12:04:09;98521.13;;;25.57;54.35
72428;BME280;60419;48.880;18.036;2023-07-29T12:06:56;98516.00;;;25.28;55.55
72428;BME280;60419;48.880;18.036;2023-07-29T12:09:42;98508.13;;;25.54;53.97
72428;BME280;60419;48.880;18.036;2023-07-29T12:12:28;98509.59;;;26.09;51.76
72428;BME280;60419;48.880;18.036;2023-07-29T12:15:13;98509.69;;;25.55;53.18
72428;BME280;60419;48.880;18.036;2023-07-29T12:17:59;98499.16;;;26.40;51.21
72428;BME280;60419;48.880;18.036;2023-07-29T12:20:44;98492.63;;;26.07;49.71
72428;BME280;60419;48.880;18.036;2023-07-29T12:23:30;98491.19;;;26.22;49.36
72428;BME280;60419;48.880;18.036;2023-07-29T12:26:15;98488.91;;;26.17;49.02
72428;BME280;60419;48.880;18.036;2023-07-29T12:29:11;98479.63;;;26.27;49.30
72428;BME280;60419;48.880;18.036;2023-07-29T12:32:03;98476.75;;;26.91;47.75
72428;BME280;60419;48.880;18.036;2023-07-29T12:34:49;98474.91;;;27.70;45.97
72428;BME280;60419;48.880;18.036;2023-07-29T12:37:34;98478.19;;;26.39;48.98
72428;BME280;60419;48.880;18.036;2023-07-29T12:40:23;98470.66;;;27.16;47.27
72428;BME280;60419;48.880;18.036;2023-07-29T12:43:09;98466.78;;;26.93;47.21
72428;BME280;60419;48.880;18.036;2023-07-29T12:45:57;98463.56;;;26.59;47.54
72428;BME280;60419;48.880;18.036;2023-07-29T12:48:42;98468.00;;;26.13;48.83
72428;BME280;60419;48.880;18.036;2023-07-29T12:51:28;98459.44;;;26.47;47.96
72428;BME280;60419;48.880;18.036;2023-07-29T12:54:13;98466.00;;;26.13;48.42
72428;BME280;60419;48.880;18.036;2023-07-29T12:56:58;98460.31;;;27.00;47.39
72428;BME280;60419;48.880;18.036;2023-07-29T12:59:44;98465.97;;;26.57;47.01
72428;BME280;60419;48.880;18.036;2023-07-29T13:02:29;98463.28;;;26.33;47.67
72428;BME280;60419;48.880;18.036;2023-07-29T13:05:15;98458.34;;;27.01;47.06
72428;BME280;60419;48.880;18.036;2023-07-29T13:08:00;98459.13;;;27.18;46.99
72428;BME280;60419;48.880;18.036;2023-07-29T13:10:45;98461.44;;;27.55;45.24
72428;BME280;60419;48.880;18.036;2023-07-29T13:13:31;98460.09;;;27.76;44.44
72428;BME280;60419;48.880;18.036;2023-07-29T13:16:17;98462.25;;;27.85;45.15
72428;BME280;60419;48.880;18.036;2023-07-29T13:19:02;98466.41;;;27.77;46.66
72428;BME280;60419;48.880;18.036;2023-07-29T13:21:48;98452.63;;;26.71;50.21
72428;BME280;60419;48.880;18.036;2023-07-29T13:24:33;98457.03;;;25.38;52.99
72428;BME280;60419;48.880;18.036;2023-07-29T13:27:18;98455.78;;;25.67;51.42
72428;BME280;60419;48.880;18.036;2023-07-29T13:30:04;98449.06;;;25.88;51.96
72428;BME280;60419;48.880;18.036;2023-07-29T13:32:50;98450.13;;;26.57;48.33
72428;BME280;60419;48.880;18.036;2023-07-29T13:35:35;98449.59;;;27.35;47.09
72428;BME280;60419;48.880;18.036;2023-07-29T13:38:21;98437.84;;;26.58;47.99
72428;BME280;60419;48.880;18.036;2023-07-29T13:41:06;98430.56;;;25.84;50.25
72428;BME280;60419;48.880;18.036;2023-07-29T13:43:51;98425.81;;;26.48;49.07
72428;BME280;60419;48.880;18.036;2023-07-29T13:46:37;98424.56;;;27.06;44.95
72428;BME280;60419;48.880;18.036;2023-07-29T13:49:22;98430.84;;;27.88;45.30
72428;BME280;60419;48.880;18.036;2023-07-29T13:52:08;98430.78;;;27.75;43.38
72428;BME280;60419;48.880;18.036;2023-07-29T13:54:53;98423.03;;;26.48;47.90
72428;BME280;60419;48.880;18.036;2023-07-29T13:57:39;98412.81;;;27.80;44.79
72428;BME280;60419;48.880;18.036;2023-07-29T14:00:27;98406.44;;;27.67;45.25
72428;BME280;60419;48.880;18.036;2023-07-29T14:03:12;98402.56;;;27.31;46.79
72428;BME280;60419;48.880;18.036;2023-07-29T14:05:58;98400.91;;;27.01;46.28
72428;BME280;60419;48.880;18.036;2023-07-29T14:08:43;98406.91;;;27.16;44.88
72428;BME280;60419;48.880;18.036;2023-07-29T14:11:28;98397.16;;;27.73;42.36
72428;BME280;60419;48.880;18.036;2023-07-29T14:14:14;98399.91;;;28.19;40.39
72428;BME280;60419;48.880;18.036;2023-07-29T14:17:00;98404.47;;;28.26;39.55
72428;BME280;60419;48.880;18.036;2023-07-29T14:19:45;98393.53;;;28.06;39.94
72428;BME280;60419;48.880;18.036;2023-07-29T14:22:31;98395.16;;;28.03;40.56
72428;BME280;60419;48.880;18.036;2023-07-29T14:25:16;98388.25;;;27.95;40.20
72428;BME280;60419;48.880;18.036;2023-07-29T14:28:02;98383.19;;;28.61;40.02
72428;BME280;60419;48.880;18.036;2023-07-29T14:30:47;98374.13;;;28.73;39.05
72428;BME280;60419;48.880;18.036;2023-07-29T14:33:32;98360.50;;;28.37;40.06
72428;BME280;60419;48.880;18.036;2023-07-29T14:36:18;98367.34;;;28.87;39.18
72428;BME280;60419;48.880;18.036;2023-07-29T14:39:03;98363.88;;;28.57;38.75